sensor_id;sensor_type;location;lat;lon;timestamp;P1;durP1;ratioP1;P2;durP2;ratioP2
2031;SDS011;27625;50.422;7.944;2023-04-01T00:02:39;2.70;;;1.30;;
2031;SDS011;27625;50.422;7.944;2023-04-01T00:05:06;8.10;;;2.40;;
2031;SDS011;27625;50.422;7.944;2023-04-01T00:07:34;8.13;;;1.90;;
2031;SDS011;27625;50.422;7.944;2023-04-01T00:10:01;5.83;;;1.80;;
2031;SDS011;27625;50.422;7.944;2023-04-01T00:12:29;3.80;;;1.80;;
2031;SDS011;27625;50.422;7.944;2023-04-01T00:14:57;4.10;;;1.53;;
2031;SDS011;27625;50.422;7.944;2023-04-01T00:17:29;6.70;;;1.73;;
2031;SDS011;27625;50.422;7.944;2023-04-01T00:19:59;3.27;;;1.60;;
2031;SDS011;27625;50.422;7.944;2023-04-01T00:22:26;2.87;;;1.60;;
2031;SDS011;27625;50.422;7.944;2023-04-01T00:24:55;5.70;;;1.80;;
2031;SDS011;27625;50.422;7.944;2023-04-01T00:27:24;5.03;;;1.70;;
2031;SDS011;27625;50.422;7.944;2023-04-01T00:29:51;5.57;;;1.70;;
2031;SDS011;27625;50.422;7.944;2023-04-01T00:32:18;4.90;;;1.50;;
2031;SDS011;27625;50.422;7.944;2023-04-01T00:34:45;5.33;;;1.57;;
2031;SDS011;27625;50.422;7.944;2023-04-01T00:37:13;3.70;;;1.60;;
2031;SDS011;27625;50.422;7.944;2023-04-01T00:39:41;3.27;;;1.50;;
2031;SDS011;27625;50.422;7.944;2023-04-01T00:42:18;4.47;;;1.67;;
2031;SDS011;27625;50.422;7.944;2023-04-01T00:44:47;8.30;;;1.73;;
2031;SDS011;27625;50.422;7.944;2023-04-01T00:47:18;5.47;;;1.50;;
2031;SDS011;27625;50.422;7.944;2023-04-01T00:49:45;5.17;;;1.63;;
2031;SDS011;27625;50.422;7.944;2023-04-01T00:52:15;4.33;;;1.83;;
2031;SDS011;27625;50.422;7.944;2023-04-01T00:54:46;4.03;;;1.67;;
2031;SDS011;27625;50.422;7.944;2023-04-01T00:57:16;2.90;;;1.40;;
2031;SDS011;27625;50.422;7.944;2023-04-01T00:59:48;3.97;;;1.57;;
2031;SDS011;27625;50.422;7.944;2023-04-01T01:02:19;2.57;;;1.47;;
2031;SDS011;27625;50.422;7.944;2023-04-01T01:04:45;3.60;;;1.37;;
2031;SDS011;27625;50.422;7.944;2023-04-01T01:07:19;2.83;;;1.30;;
2031;SDS011;27625;50.422;7.944;2023-04-01T01:09:52;9.27;;;1.70;;
2031;SDS011;27625;50.422;7.944;2023-04-01T01:12:23;4.20;;;1.60;;
2031;SDS011;27625;50.422;7.944;2023-04-01T01:14:55;4.10;;;1.83;;
2031;SDS011;27625;50.422;7.944;2023-04-01T01:17:28;5.20;;;1.60;;
2031;SDS011;27625;50.422;7.944;2023-04-01T01:26:09;4.43;;;1.47;;
2031;SDS011;27625;50.422;7.944;2023-04-01T01:28:47;4.20;;;1.60;;
2031;SDS011;27625;50.422;7.944;2023-04-01T01:31:22;5.10;;;1.57;;
2031;SDS011;27625;50.422;7.944;2023-04-01T01:33:54;5.40;;;1.50;;
2031;SDS011;27625;50.422;7.944;2023-04-01T01:36:30;2.67;;;1.70;;
2031;SDS011;27625;50.422;7.944;2023-04-01T01:39:01;4.23;;;1.43;;
2031;SDS011;27625;50.422;7.944;2023-04-01T01:41:28;3.63;;;1.40;;
2031;SDS011;27625;50.422;7.944;2023-04-01T01:43:56;7.37;;;1.70;;
2031;SDS011;27625;50.422;7.944;2023-04-01T01:46:27;3.80;;;1.70;;
2031;SDS011;27625;50.422;7.944;2023-04-01T01:48:55;6.07;;;1.40;;
2031;SDS011;27625;50.422;7.944;2023-04-01T01:51:23;3.60;;;1.20;;
2031;SDS011;27625;50.422;7.944;2023-04-01T01:53:52;4.60;;;1.77;;
2031;SDS011;27625;50.422;7.944;2023-04-01T01:56:22;4.53;;;1.90;;
2031;SDS011;27625;50.422;7.944;2023-04-01T01:58:51;2.60;;;1.50;;
2031;SDS011;27625;50.422;7.944;2023-04-01T02:01:21;4.30;;;1.50;;
2031;SDS011;27625;50.422;7.944;2023-04-01T02:03:51;4.20;;;1.83;;
2031;SDS011;27625;50.422;7.944;2023-04-01T02:06:19;3.60;;;1.60;;
2031;SDS011;27625;50.422;7.944;2023-04-01T02:08:53;3.97;;;1.43;;
2031;SDS011;27625;50.422;7.944;2023-04-01T02:11:24;3.67;;;1.70;;
2031;SDS011;27625;50.422;7.944;2023-04-01T02:13:56;2.90;;;1.40;;
2031;SDS011;27625;50.422;7.944;2023-04-01T02:16:27;3.60;;;1.60;;
2031;SDS011;27625;50.422;7.944;2023-04-01T02:18:55;4.73;;;1.70;;
2031;SDS011;27625;50.422;7.944;2023-04-01T02:21:23;3.33;;;1.50;;
2031;SDS011;27625;50.422;7.944;2023-04-01T02:23:55;2.20;;;1.37;;
2031;SDS011;27625;50.422;7.944;2023-04-01T02:26:23;4.73;;;1.60;;
2031;SDS011;27625;50.422;7.944;2023-04-01T02:28:53;4.03;;;1.27;;
2031;SDS011;27625;50.422;7.944;2023-04-01T02:31:20;3.20;;;1.60;;
2031;SDS011;27625;50.422;7.944;2023-04-01T02:36:17;5.77;;;1.47;;
2031;SDS011;27625;50.422;7.944;2023-04-01T02:38:45;4.73;;;1.70;;
2031;SDS011;27625;50.422;7.944;2023-04-01T02:41:14;3.67;;;1.60;;
2031;SDS011;27625;50.422;7.944;2023-04-01T02:43:42;4.43;;;1.43;;
2031;SDS011;27625;50.422;7.944;2023-04-01T02:46:08;3.87;;;1.40;;
2031;SDS011;27625;50.422;7.944;2023-04-01T02:48:35;3.40;;;1.30;;
2031;SDS011;27625;50.422;7.944;2023-04-01T02:51:04;5.60;;;1.83;;
2031;SDS011;27625;50.422;7.944;2023-04-01T02:53:32;3.00;;;1.50;;
2031;SDS011;27625;50.422;7.944;2023-04-01T02:55:58;4.17;;;1.40;;
2031;SDS011;27625;50.422;7.944;2023-04-01T02:58:34;4.77;;;1.50;;
2031;SDS011;27625;50.422;7.944;2023-04-01T03:01:01;3.30;;;1.50;;
2031;SDS011;27625;50.422;7.944;2023-04-01T03:03:28;7.03;;;1.60;;
2031;SDS011;27625;50.422;7.944;2023-04-01T03:05:54;3.00;;;1.40;;
2031;SDS011;27625;50.422;7.944;2023-04-01T03:08:23;10.60;;;2.37;;
2031;SDS011;27625;50.422;7.944;2023-04-01T03:10:50;2.60;;;1.33;;
2031;SDS011;27625;50.422;7.944;2023-04-01T03:13:17;4.90;;;1.43;;
2031;SDS011;27625;50.422;7.944;2023-04-01T03:15:45;4.70;;;1.50;;
2031;SDS011;27625;50.422;7.944;2023-04-01T03:18:11;3.07;;;1.47;;
2031;SDS011;27625;50.422;7.944;2023-04-01T03:20:38;3.20;;;1.37;;
2031;SDS011;27625;50.422;7.944;2023-04-01T03:23:05;3.33;;;1.30;;
2031;SDS011;27625;50.422;7.944;2023-04-01T03:25:31;4.20;;;1.50;;
2031;SDS011;27625;50.422;7.944;2023-04-01T03:27:59;3.40;;;1.40;;
2031;SDS011;27625;50.422;7.944;2023-04-01T03:30:26;3.43;;;1.30;;
2031;SDS011;27625;50.422;7.944;2023-04-01T03:32:56;6.70;;;1.53;;
2031;SDS011;27625;50.422;7.944;2023-04-01T03:35:23;2.93;;;1.20;;
2031;SDS011;27625;50.422;7.944;2023-04-01T03:37:50;8.17;;;1.83;;
2031;SDS011;27625;50.422;7.944;2023-04-01T03:40:16;3.83;;;1.77;;
2031;SDS011;27625;50.422;7.944;2023-04-01T03:42:44;3.83;;;1.20;;
2031;SDS011;27625;50.422;7.944;2023-04-01T03:45:11;4.17;;;1.40;;
2031;SDS011;27625;50.422;7.944;2023-04-01T03:47:38;2.87;;;1.20;;
2031;SDS011;27625;50.422;7.944;2023-04-01T03:50:07;4.27;;;1.43;;
2031;SDS011;27625;50.422;7.944;2023-04-01T03:52:35;3.13;;;1.97;;
2031;SDS011;27625;50.422;7.944;2023-04-01T03:55:03;4.03;;;2.30;;
2031;SDS011;27625;50.422;7.944;2023-04-01T03:57:30;3.37;;;1.33;;
2031;SDS011;27625;50.422;7.944;2023-04-01T04:00:03;4.20;;;1.40;;
2031;SDS011;27625;50.422;7.944;2023-04-01T04:02:42;3.17;;;1.60;;
2031;SDS011;27625;50.422;7.944;2023-04-01T04:05:12;4.63;;;1.50;;
2031;SDS011;27625;50.422;7.944;2023-04-01T04:07:40;3.17;;;1.90;;
2031;SDS011;27625;50.422;7.944;2023-04-01T04:10:08;3.57;;;1.50;;
2031;SDS011;27625;50.422;7.944;2023-04-01T04:12:35;4.13;;;1.37;;
2031;SDS011;27625;50.422;7.944;2023-04-01T04:15:02;4.10;;;1.43;;
2031;SDS011;27625;50.422;7.944;2023-04-01T04:17:29;2.40;;;1.30;;
2031;SDS011;27625;50.422;7.944;2023-04-01T04:19:55;3.37;;;1.20;;
2031;SDS011;27625;50.422;7.944;2023-04-01T04:22:24;3.80;;;1.47;;
2031;SDS011;27625;50.422;7.944;2023-04-01T04:24:53;2.93;;;1.20;;
2031;SDS011;27625;50.422;7.944;2023-04-01T04:27:22;5.43;;;1.50;;
2031;SDS011;27625;50.422;7.944;2023-04-01T04:30:00;3.67;;;1.03;;
2031;SDS011;27625;50.422;7.944;2023-04-01T04:32:28;2.10;;;1.20;;
2031;SDS011;27625;50.422;7.944;2023-04-01T04:34:55;2.70;;;1.40;;
2031;SDS011;27625;50.422;7.944;2023-04-01T04:37:22;2.80;;;1.30;;
2031;SDS011;27625;50.422;7.944;2023-04-01T04:39:51;3.57;;;1.50;;
2031;SDS011;27625;50.422;7.944;2023-04-01T04:42:18;2.37;;;1.03;;
2031;SDS011;27625;50.422;7.944;2023-04-01T04:44:46;4.73;;;1.40;;
2031;SDS011;27625;50.422;7.944;2023-04-01T04:47:19;3.13;;;1.27;;
2031;SDS011;27625;50.422;7.944;2023-04-01T04:49:47;3.70;;;1.30;;
2031;SDS011;27625;50.422;7.944;2023-04-01T04:52:15;3.23;;;1.40;;
2031;SDS011;27625;50.422;7.944;2023-04-01T04:54:45;4.80;;;1.30;;
2031;SDS011;27625;50.422;7.944;2023-04-01T04:57:14;3.63;;;1.23;;
2031;SDS011;27625;50.422;7.944;2023-04-01T04:59:48;5.70;;;1.17;;
2031;SDS011;27625;50.422;7.944;2023-04-01T05:02:26;7.00;;;1.40;;
2031;SDS011;27625;50.422;7.944;2023-04-01T05:05:02;3.13;;;1.10;;
2031;SDS011;27625;50.422;7.944;2023-04-01T05:07:29;3.63;;;1.40;;
2031;SDS011;27625;50.422;7.944;2023-04-01T05:10:02;5.10;;;1.30;;
2031;SDS011;27625;50.422;7.944;2023-04-01T05:12:32;3.90;;;1.60;;
2031;SDS011;27625;50.422;7.944;2023-04-01T05:15:02;3.47;;;1.60;;
2031;SDS011;27625;50.422;7.944;2023-04-01T05:17:32;4.43;;;1.60;;
2031;SDS011;27625;50.422;7.944;2023-04-01T05:20:00;2.23;;;1.33;;
2031;SDS011;27625;50.422;7.944;2023-04-01T05:22:29;2.77;;;1.20;;
2031;SDS011;27625;50.422;7.944;2023-04-01T05:24:56;3.07;;;1.40;;
2031;SDS011;27625;50.422;7.944;2023-04-01T05:27:22;3.70;;;1.40;;
2031;SDS011;27625;50.422;7.944;2023-04-01T05:29:51;2.83;;;1.20;;
2031;SDS011;27625;50.422;7.944;2023-04-01T05:32:38;3.03;;;1.30;;
2031;SDS011;27625;50.422;7.944;2023-04-01T05:35:07;2.73;;;1.30;;
2031;SDS011;27625;50.422;7.944;2023-04-01T05:37:34;4.70;;;1.40;;
2031;SDS011;27625;50.422;7.944;2023-04-01T05:40:04;3.07;;;1.77;;
2031;SDS011;27625;50.422;7.944;2023-04-01T05:42:33;2.80;;;1.17;;
2031;SDS011;27625;50.422;7.944;2023-04-01T05:45:02;2.53;;;1.20;;
2031;SDS011;27625;50.422;7.944;2023-04-01T05:48:06;3.63;;;1.33;;
2031;SDS011;27625;50.422;7.944;2023-04-01T05:50:39;2.10;;;1.03;;
2031;SDS011;27625;50.422;7.944;2023-04-01T05:53:08;2.13;;;1.10;;
2031;SDS011;27625;50.422;7.944;2023-04-01T05:55:38;2.20;;;1.03;;
2031;SDS011;27625;50.422;7.944;2023-04-01T05:58:05;2.90;;;1.13;;
2031;SDS011;27625;50.422;7.944;2023-04-01T06:00:35;3.30;;;1.00;;
2031;SDS011;27625;50.422;7.944;2023-04-01T06:03:02;4.00;;;1.20;;
2031;SDS011;27625;50.422;7.944;2023-04-01T06:05:30;2.47;;;1.30;;
2031;SDS011;27625;50.422;7.944;2023-04-01T06:07:58;3.73;;;1.40;;
2031;SDS011;27625;50.422;7.944;2023-04-01T06:10:32;4.70;;;1.40;;
2031;SDS011;27625;50.422;7.944;2023-04-01T06:13:06;1.90;;;1.00;;
2031;SDS011;27625;50.422;7.944;2023-04-01T06:15:36;2.37;;;1.00;;
2031;SDS011;27625;50.422;7.944;2023-04-01T06:21:18;2.40;;;1.30;;
2031;SDS011;27625;50.422;7.944;2023-04-01T06:24:04;2.10;;;1.10;;
2031;SDS011;27625;50.422;7.944;2023-04-01T06:26:39;2.30;;;1.20;;
2031;SDS011;27625;50.422;7.944;2023-04-01T06:29:42;2.83;;;1.50;;
2031;SDS011;27625;50.422;7.944;2023-04-01T06:35:19;4.80;;;1.40;;
2031;SDS011;27625;50.422;7.944;2023-04-01T06:38:01;1.90;;;1.17;;
2031;SDS011;27625;50.422;7.944;2023-04-01T06:43:39;2.53;;;1.40;;
2031;SDS011;27625;50.422;7.944;2023-04-01T06:46:31;2.60;;;1.20;;
2031;SDS011;27625;50.422;7.944;2023-04-01T06:49:29;2.30;;;1.10;;
2031;SDS011;27625;50.422;7.944;2023-04-01T06:52:26;3.33;;;1.37;;
2031;SDS011;27625;50.422;7.944;2023-04-01T06:55:23;2.20;;;1.17;;
2031;SDS011;27625;50.422;7.944;2023-04-01T06:58:13;1.90;;;1.00;;
2031;SDS011;27625;50.422;7.944;2023-04-01T07:00:46;2.50;;;1.10;;
2031;SDS011;27625;50.422;7.944;2023-04-01T07:03:16;2.63;;;1.10;;
2031;SDS011;27625;50.422;7.944;2023-04-01T07:05:47;3.30;;;1.20;;
2031;SDS011;27625;50.422;7.944;2023-04-01T07:08:19;2.50;;;1.30;;
2031;SDS011;27625;50.422;7.944;2023-04-01T07:10:53;2.00;;;1.20;;
2031;SDS011;27625;50.422;7.944;2023-04-01T07:13:47;2.50;;;1.00;;
2031;SDS011;27625;50.422;7.944;2023-04-01T07:16:18;3.57;;;1.20;;
2031;SDS011;27625;50.422;7.944;2023-04-01T07:18:52;4.83;;;1.20;;
2031;SDS011;27625;50.422;7.944;2023-04-01T07:21:25;7.80;;;1.30;;
2031;SDS011;27625;50.422;7.944;2023-04-01T07:24:04;2.00;;;1.10;;
2031;SDS011;27625;50.422;7.944;2023-04-01T07:26:39;2.00;;;1.00;;
2031;SDS011;27625;50.422;7.944;2023-04-01T07:29:13;2.77;;;1.20;;
2031;SDS011;27625;50.422;7.944;2023-04-01T07:31:56;2.63;;;1.37;;
2031;SDS011;27625;50.422;7.944;2023-04-01T07:34:33;4.43;;;1.20;;
2031;SDS011;27625;50.422;7.944;2023-04-01T07:37:04;3.70;;;1.30;;
2031;SDS011;27625;50.422;7.944;2023-04-01T07:39:40;2.63;;;1.10;;
2031;SDS011;27625;50.422;7.944;2023-04-01T07:42:29;3.60;;;1.20;;
2031;SDS011;27625;50.422;7.944;2023-04-01T07:45:02;3.30;;;1.00;;
2031;SDS011;27625;50.422;7.944;2023-04-01T07:47:49;2.50;;;1.07;;
2031;SDS011;27625;50.422;7.944;2023-04-01T07:50:25;1.80;;;0.90;;
2031;SDS011;27625;50.422;7.944;2023-04-01T07:52:56;4.10;;;1.30;;
2031;SDS011;27625;50.422;7.944;2023-04-01T07:55:34;2.10;;;1.00;;
2031;SDS011;27625;50.422;7.944;2023-04-01T07:58:08;3.03;;;1.10;;
2031;SDS011;27625;50.422;7.944;2023-04-01T08:00:42;4.17;;;1.20;;
2031;SDS011;27625;50.422;7.944;2023-04-01T08:03:29;2.20;;;1.10;;
2031;SDS011;27625;50.422;7.944;2023-04-01T08:06:03;3.43;;;1.57;;
2031;SDS011;27625;50.422;7.944;2023-04-01T08:08:40;3.30;;;1.20;;
2031;SDS011;27625;50.422;7.944;2023-04-01T08:11:35;3.57;;;1.93;;
2031;SDS011;27625;50.422;7.944;2023-04-01T08:14:29;3.70;;;2.17;;
2031;SDS011;27625;50.422;7.944;2023-04-01T08:17:20;10.23;;;4.73;;
2031;SDS011;27625;50.422;7.944;2023-04-01T08:19:56;3.90;;;1.50;;
2031;SDS011;27625;50.422;7.944;2023-04-01T08:22:33;2.60;;;1.40;;
2031;SDS011;27625;50.422;7.944;2023-04-01T08:25:10;2.37;;;1.53;;
2031;SDS011;27625;50.422;7.944;2023-04-01T08:27:43;2.10;;;1.10;;
2031;SDS011;27625;50.422;7.944;2023-04-01T08:30:16;3.13;;;1.47;;
2031;SDS011;27625;50.422;7.944;2023-04-01T08:32:46;2.73;;;1.17;;
2031;SDS011;27625;50.422;7.944;2023-04-01T08:35:16;2.53;;;1.60;;
2031;SDS011;27625;50.422;7.944;2023-04-01T08:37:49;2.50;;;1.20;;
2031;SDS011;27625;50.422;7.944;2023-04-01T08:40:39;2.73;;;1.30;;
2031;SDS011;27625;50.422;7.944;2023-04-01T08:47:09;2.30;;;1.13;;
2031;SDS011;27625;50.422;7.944;2023-04-01T08:49:48;1.83;;;0.93;;
2031;SDS011;27625;50.422;7.944;2023-04-01T08:52:52;2.03;;;1.03;;
2031;SDS011;27625;50.422;7.944;2023-04-01T08:55:35;2.40;;;1.40;;
2031;SDS011;27625;50.422;7.944;2023-04-01T09:01:21;2.50;;;1.40;;
2031;SDS011;27625;50.422;7.944;2023-04-01T09:03:58;1.80;;;0.90;;
2031;SDS011;27625;50.422;7.944;2023-04-01T09:06:33;2.20;;;1.50;;
2031;SDS011;27625;50.422;7.944;2023-04-01T09:09:23;2.40;;;1.40;;
2031;SDS011;27625;50.422;7.944;2023-04-01T09:15:16;2.50;;;1.20;;
2031;SDS011;27625;50.422;7.944;2023-04-01T09:18:06;2.20;;;1.13;;
2031;SDS011;27625;50.422;7.944;2023-04-01T09:20:52;2.07;;;1.17;;
2031;SDS011;27625;50.422;7.944;2023-04-01T09:23:29;2.60;;;1.20;;
2031;SDS011;27625;50.422;7.944;2023-04-01T09:26:12;2.70;;;1.20;;
2031;SDS011;27625;50.422;7.944;2023-04-01T09:28:54;2.37;;;1.10;;
2031;SDS011;27625;50.422;7.944;2023-04-01T09:31:28;2.10;;;1.20;;
2031;SDS011;27625;50.422;7.944;2023-04-01T09:37:17;3.87;;;1.90;;
2031;SDS011;27625;50.422;7.944;2023-04-01T09:39:53;3.43;;;1.87;;
2031;SDS011;27625;50.422;7.944;2023-04-01T09:45:30;2.83;;;1.67;;
2031;SDS011;27625;50.422;7.944;2023-04-01T09:48:09;4.47;;;1.47;;
2031;SDS011;27625;50.422;7.944;2023-04-01T09:50:51;2.43;;;1.50;;
2031;SDS011;27625;50.422;7.944;2023-04-01T09:53:29;2.77;;;1.93;;
2031;SDS011;27625;50.422;7.944;2023-04-01T09:56:23;4.03;;;2.10;;
2031;SDS011;27625;50.422;7.944;2023-04-01T10:08:36;2.10;;;1.20;;
2031;SDS011;27625;50.422;7.944;2023-04-01T10:11:41;5.10;;;2.13;;
2031;SDS011;27625;50.422;7.944;2023-04-01T10:14:25;2.20;;;1.30;;
2031;SDS011;27625;50.422;7.944;2023-04-01T10:20:01;3.27;;;2.00;;
2031;SDS011;27625;50.422;7.944;2023-04-01T10:25:41;2.73;;;2.03;;
2031;SDS011;27625;50.422;7.944;2023-04-01T10:28:36;2.40;;;1.53;;
2031;SDS011;27625;50.422;7.944;2023-04-01T10:37:35;4.03;;;2.70;;
2031;SDS011;27625;50.422;7.944;2023-04-01T10:52:44;2.90;;;1.80;;
2031;SDS011;27625;50.422;7.944;2023-04-01T11:09:26;3.00;;;2.07;;
2031;SDS011;27625;50.422;7.944;2023-04-01T11:12:16;2.57;;;1.90;;
2031;SDS011;27625;50.422;7.944;2023-04-01T11:20:56;3.33;;;2.13;;
2031;SDS011;27625;50.422;7.944;2023-04-01T11:23:53;3.90;;;2.47;;
2031;SDS011;27625;50.422;7.944;2023-04-01T11:26:32;4.07;;;2.53;;
2031;SDS011;27625;50.422;7.944;2023-04-01T11:32:25;3.70;;;2.20;;
2031;SDS011;27625;50.422;7.944;2023-04-01T11:35:02;3.53;;;2.03;;
2031;SDS011;27625;50.422;7.944;2023-04-01T11:37:50;3.90;;;2.53;;
2031;SDS011;27625;50.422;7.944;2023-04-01T11:40:51;4.70;;;3.10;;
2031;SDS011;27625;50.422;7.944;2023-04-01T11:43:40;2.97;;;2.20;;
2031;SDS011;27625;50.422;7.944;2023-04-01T11:46:25;3.30;;;2.10;;
2031;SDS011;27625;50.422;7.944;2023-04-01T11:48:57;3.07;;;2.00;;
2031;SDS011;27625;50.422;7.944;2023-04-01T11:51:36;3.87;;;2.03;;
2031;SDS011;27625;50.422;7.944;2023-04-01T11:54:14;4.40;;;3.30;;
2031;SDS011;27625;50.422;7.944;2023-04-01T11:56:52;4.30;;;3.30;;
2031;SDS011;27625;50.422;7.944;2023-04-01T12:02:29;3.03;;;2.23;;
2031;SDS011;27625;50.422;7.944;2023-04-01T12:05:22;3.80;;;2.80;;
2031;SDS011;27625;50.422;7.944;2023-04-01T12:08:01;4.47;;;3.50;;
2031;SDS011;27625;50.422;7.944;2023-04-01T12:10:33;7.70;;;5.20;;
2031;SDS011;27625;50.422;7.944;2023-04-01T12:13:07;5.30;;;4.30;;
2031;SDS011;27625;50.422;7.944;2023-04-01T12:15:45;3.90;;;2.93;;
2031;SDS011;27625;50.422;7.944;2023-04-01T12:18:23;6.03;;;3.30;;
2031;SDS011;27625;50.422;7.944;2023-04-01T12:20:54;4.40;;;3.20;;
2031;SDS011;27625;50.422;7.944;2023-04-01T12:23:37;8.93;;;6.70;;
2031;SDS011;27625;50.422;7.944;2023-04-01T12:26:19;5.83;;;4.13;;
2031;SDS011;27625;50.422;7.944;2023-04-01T12:29:04;6.03;;;5.20;;
2031;SDS011;27625;50.422;7.944;2023-04-01T12:31:38;5.27;;;3.30;;
2031;SDS011;27625;50.422;7.944;2023-04-01T12:34:31;3.97;;;3.57;;
2031;SDS011;27625;50.422;7.944;2023-04-01T12:37:18;3.80;;;2.60;;
2031;SDS011;27625;50.422;7.944;2023-04-01T12:42:58;4.00;;;2.90;;
2031;SDS011;27625;50.422;7.944;2023-04-01T12:45:29;5.30;;;3.30;;
2031;SDS011;27625;50.422;7.944;2023-04-01T12:48:05;5.60;;;5.07;;
2031;SDS011;27625;50.422;7.944;2023-04-01T12:50:44;4.00;;;2.93;;
2031;SDS011;27625;50.422;7.944;2023-04-01T12:56:13;4.50;;;3.30;;
2031;SDS011;27625;50.422;7.944;2023-04-01T13:01:44;5.10;;;3.10;;
2031;SDS011;27625;50.422;7.944;2023-04-01T13:04:34;5.53;;;4.27;;
2031;SDS011;27625;50.422;7.944;2023-04-01T13:07:11;5.00;;;4.47;;
2031;SDS011;27625;50.422;7.944;2023-04-01T13:09:45;3.80;;;2.83;;
2031;SDS011;27625;50.422;7.944;2023-04-01T13:12:20;5.40;;;4.33;;
2031;SDS011;27625;50.422;7.944;2023-04-01T13:14:59;4.50;;;3.63;;
2031;SDS011;27625;50.422;7.944;2023-04-01T13:17:58;5.97;;;4.60;;
2031;SDS011;27625;50.422;7.944;2023-04-01T13:20:35;11.30;;;8.50;;
2031;SDS011;27625;50.422;7.944;2023-04-01T13:23:13;4.80;;;2.90;;
2031;SDS011;27625;50.422;7.944;2023-04-01T13:25:46;3.50;;;3.10;;
2031;SDS011;27625;50.422;7.944;2023-04-01T13:28:16;4.63;;;3.07;;
2031;SDS011;27625;50.422;7.944;2023-04-01T13:30:47;3.80;;;3.37;;
2031;SDS011;27625;50.422;7.944;2023-04-01T13:33:17;4.80;;;3.63;;
2031;SDS011;27625;50.422;7.944;2023-04-01T13:35:53;3.57;;;2.63;;
2031;SDS011;27625;50.422;7.944;2023-04-01T13:41:26;3.33;;;2.70;;
2031;SDS011;27625;50.422;7.944;2023-04-01T13:44:00;3.83;;;3.00;;
2031;SDS011;27625;50.422;7.944;2023-04-01T13:46:41;3.60;;;2.60;;
2031;SDS011;27625;50.422;7.944;2023-04-01T13:52:19;5.00;;;2.83;;
2031;SDS011;27625;50.422;7.944;2023-04-01T13:55:05;3.90;;;3.00;;
2031;SDS011;27625;50.422;7.944;2023-04-01T13:58:01;4.97;;;3.20;;
2031;SDS011;27625;50.422;7.944;2023-04-01T14:00:48;6.17;;;4.80;;
2031;SDS011;27625;50.422;7.944;2023-04-01T14:03:28;3.77;;;2.50;;
2031;SDS011;27625;50.422;7.944;2023-04-01T14:06:02;3.47;;;2.50;;
2031;SDS011;27625;50.422;7.944;2023-04-01T14:08:36;3.57;;;1.90;;
2031;SDS011;27625;50.422;7.944;2023-04-01T14:11:16;4.43;;;3.00;;
2031;SDS011;27625;50.422;7.944;2023-04-01T14:13:46;3.47;;;2.60;;
2031;SDS011;27625;50.422;7.944;2023-04-01T14:16:32;3.20;;;2.10;;
2031;SDS011;27625;50.422;7.944;2023-04-01T14:19:11;2.80;;;2.27;;
2031;SDS011;27625;50.422;7.944;2023-04-01T14:21:51;3.03;;;2.13;;
2031;SDS011;27625;50.422;7.944;2023-04-01T14:24:23;2.83;;;2.10;;
2031;SDS011;27625;50.422;7.944;2023-04-01T14:27:10;3.53;;;2.30;;
2031;SDS011;27625;50.422;7.944;2023-04-01T14:30:04;2.40;;;1.60;;
2031;SDS011;27625;50.422;7.944;2023-04-01T14:32:43;2.63;;;1.93;;
2031;SDS011;27625;50.422;7.944;2023-04-01T14:35:18;2.97;;;1.90;;
2031;SDS011;27625;50.422;7.944;2023-04-01T14:38:04;3.80;;;2.03;;
2031;SDS011;27625;50.422;7.944;2023-04-01T14:40:55;3.60;;;2.20;;
2031;SDS011;27625;50.422;7.944;2023-04-01T14:43:30;4.30;;;2.83;;
2031;SDS011;27625;50.422;7.944;2023-04-01T14:46:27;4.40;;;2.73;;
2031;SDS011;27625;50.422;7.944;2023-04-01T14:49:15;2.40;;;1.50;;
2031;SDS011;27625;50.422;7.944;2023-04-01T14:51:45;2.10;;;1.13;;
2031;SDS011;27625;50.422;7.944;2023-04-01T14:54:13;2.60;;;1.70;;
2031;SDS011;27625;50.422;7.944;2023-04-01T14:56:48;2.53;;;1.67;;
2031;SDS011;27625;50.422;7.944;2023-04-01T14:59:25;2.30;;;1.40;;
2031;SDS011;27625;50.422;7.944;2023-04-01T15:01:55;3.07;;;2.13;;
2031;SDS011;27625;50.422;7.944;2023-04-01T15:04:29;3.27;;;2.10;;
2031;SDS011;27625;50.422;7.944;2023-04-01T15:10:06;2.80;;;1.80;;
2031;SDS011;27625;50.422;7.944;2023-04-01T15:12:40;3.63;;;2.20;;
2031;SDS011;27625;50.422;7.944;2023-04-01T15:15:19;5.57;;;3.07;;
2031;SDS011;27625;50.422;7.944;2023-04-01T15:18:00;13.47;;;6.70;;
2031;SDS011;27625;50.422;7.944;2023-04-01T15:20:33;9.70;;;6.00;;
2031;SDS011;27625;50.422;7.944;2023-04-01T15:23:24;4.10;;;2.90;;
2031;SDS011;27625;50.422;7.944;2023-04-01T15:29:02;3.90;;;2.43;;
2031;SDS011;27625;50.422;7.944;2023-04-01T15:31:39;3.40;;;2.37;;
2031;SDS011;27625;50.422;7.944;2023-04-01T15:34:20;4.03;;;2.47;;
2031;SDS011;27625;50.422;7.944;2023-04-01T15:36:56;2.80;;;2.00;;
2031;SDS011;27625;50.422;7.944;2023-04-01T15:39:29;3.00;;;2.00;;
2031;SDS011;27625;50.422;7.944;2023-04-01T15:42:14;4.80;;;2.10;;
2031;SDS011;27625;50.422;7.944;2023-04-01T15:44:50;3.30;;;2.07;;
2031;SDS011;27625;50.422;7.944;2023-04-01T15:47:33;2.73;;;1.70;;
2031;SDS011;27625;50.422;7.944;2023-04-01T15:50:06;3.20;;;2.33;;
2031;SDS011;27625;50.422;7.944;2023-04-01T15:52:57;2.63;;;1.90;;
2031;SDS011;27625;50.422;7.944;2023-04-01T15:55:30;4.37;;;2.20;;
2031;SDS011;27625;50.422;7.944;2023-04-01T15:58:03;3.00;;;1.90;;
2031;SDS011;27625;50.422;7.944;2023-04-01T16:00:42;2.80;;;2.10;;
2031;SDS011;27625;50.422;7.944;2023-04-01T16:03:17;4.27;;;2.90;;
2031;SDS011;27625;50.422;7.944;2023-04-01T16:05:54;3.47;;;2.20;;
2031;SDS011;27625;50.422;7.944;2023-04-01T16:08:36;2.87;;;1.93;;
2031;SDS011;27625;50.422;7.944;2023-04-01T16:11:15;3.63;;;2.30;;
2031;SDS011;27625;50.422;7.944;2023-04-01T16:13:48;2.90;;;2.00;;
2031;SDS011;27625;50.422;7.944;2023-04-01T16:16:25;2.50;;;1.80;;
2031;SDS011;27625;50.422;7.944;2023-04-01T16:21:57;3.47;;;1.90;;
2031;SDS011;27625;50.422;7.944;2023-04-01T16:24:30;3.10;;;2.10;;
2031;SDS011;27625;50.422;7.944;2023-04-01T16:27:02;3.73;;;2.50;;
2031;SDS011;27625;50.422;7.944;2023-04-01T16:29:32;3.37;;;2.00;;
2031;SDS011;27625;50.422;7.944;2023-04-01T16:32:07;5.33;;;2.67;;
2031;SDS011;27625;50.422;7.944;2023-04-01T16:34:54;4.10;;;2.70;;
2031;SDS011;27625;50.422;7.944;2023-04-01T16:37:30;5.60;;;2.77;;
2031;SDS011;27625;50.422;7.944;2023-04-01T16:40:09;4.40;;;3.17;;
2031;SDS011;27625;50.422;7.944;2023-04-01T16:42:43;6.10;;;2.47;;
2031;SDS011;27625;50.422;7.944;2023-04-01T16:45:19;4.93;;;3.30;;
2031;SDS011;27625;50.422;7.944;2023-04-01T16:47:52;4.13;;;3.03;;
2031;SDS011;27625;50.422;7.944;2023-04-01T16:50:23;4.73;;;3.50;;
2031;SDS011;27625;50.422;7.944;2023-04-01T16:52:56;3.73;;;2.70;;
2031;SDS011;27625;50.422;7.944;2023-04-01T16:55:33;2.93;;;2.07;;
2031;SDS011;27625;50.422;7.944;2023-04-01T16:58:01;5.53;;;3.67;;
2031;SDS011;27625;50.422;7.944;2023-04-01T17:00:29;4.37;;;2.60;;
2031;SDS011;27625;50.422;7.944;2023-04-01T17:03:01;4.03;;;2.73;;
2031;SDS011;27625;50.422;7.944;2023-04-01T17:05:42;3.50;;;2.70;;
2031;SDS011;27625;50.422;7.944;2023-04-01T17:08:24;3.20;;;2.27;;
2031;SDS011;27625;50.422;7.944;2023-04-01T17:11:16;6.17;;;2.50;;
2031;SDS011;27625;50.422;7.944;2023-04-01T17:13:46;5.13;;;2.87;;
2031;SDS011;27625;50.422;7.944;2023-04-01T17:16:28;3.70;;;2.80;;
2031;SDS011;27625;50.422;7.944;2023-04-01T17:19:13;5.03;;;3.07;;
2031;SDS011;27625;50.422;7.944;2023-04-01T17:21:48;5.23;;;3.73;;
2031;SDS011;27625;50.422;7.944;2023-04-01T17:24:35;2.97;;;2.20;;
2031;SDS011;27625;50.422;7.944;2023-04-01T17:27:10;3.30;;;2.03;;
2031;SDS011;27625;50.422;7.944;2023-04-01T17:29:53;3.70;;;2.00;;
2031;SDS011;27625;50.422;7.944;2023-04-01T17:32:28;2.93;;;1.97;;
2031;SDS011;27625;50.422;7.944;2023-04-01T17:35:03;3.40;;;2.60;;
2031;SDS011;27625;50.422;7.944;2023-04-01T17:37:37;3.50;;;2.60;;
2031;SDS011;27625;50.422;7.944;2023-04-01T17:40:14;5.00;;;2.97;;
2031;SDS011;27625;50.422;7.944;2023-04-01T17:43:03;4.80;;;2.97;;
2031;SDS011;27625;50.422;7.944;2023-04-01T17:45:37;3.40;;;2.30;;
2031;SDS011;27625;50.422;7.944;2023-04-01T17:48:14;3.10;;;2.50;;
2031;SDS011;27625;50.422;7.944;2023-04-01T17:50:48;3.50;;;2.60;;